Time;durP1;ratioP1;P1;durP2;ratioP2;P2;SDS_P1;SDS_P2;PMS_P1;PMS_P2;Temp;Humidity;BMP_temperature;BMP_pressure;BME280_temperature;BME280_humidity;BME280_pressure;Samples;Min_cycle;Max_cycle;Signal;HPM_P1;HPM_P2
2023/01/09 00:01:28;;;;;;;;;0.00;0.00;;;;;9.50;62.88;99429.34;5085757;27;51053;-69
2023/01/09 00:03:54;;;;;;;;;0.00;0.00;;;;;9.36;63.07;99405.19;5071630;27;45390;-69
2023/01/09 00:06:19;;;;;;;;;0.00;0.00;;;;;9.49;63.55;99434.66;5099724;27;45338;-69
2023/01/09 00:08:44;;;;;;;;;0.00;0.00;;;;;9.48;64.06;99430.19;5090168;27;45195;-69
2023/01/09 00:11:10;;;;;;;;;2.00;0.00;;;;;9.44;63.75;99425.69;5094686;27;45412;-67
2023/01/09 00:13:36;;;;;;;;;0.00;0.00;;;;;9.34;64.56;99420.28;5101639;27;45448;-68
2023/01/09 00:16:04;;;;;;;;;5.33;2.67;;;;;9.21;63.96;99411.28;5099278;27;45399;-68
2023/01/09 00:18:29;;;;;;;;;2.33;0.00;;;;;9.36;63.70;99439.84;5089301;27;45343;-65
2023/01/09 00:20:54;;;;;;;;;0.67;0.67;;;;;9.35;63.98;99435.38;5097963;27;45622;-68
2023/01/09 00:23:19;;;;;;;;;4.00;1.00;;;;;9.32;65.03;99443.38;5091284;27;49896;-70
2023/01/09 00:25:45;;;;;;;;;1.67;0.67;;;;;9.30;64.45;99442.44;5096359;27;45543;-69
2023/01/09 00:28:10;;;;;;;;;0.33;0.00;;;;;9.27;65.15;99436.19;5085327;27;45528;-69
2023/01/09 00:30:36;;;;;;;;;2.00;2.00;;;;;9.24;64.70;99437.06;5094907;27;45982;-68
2023/01/09 00:33:01;;;;;;;;;1.00;0.00;;;;;9.26;64.29;99434.44;5092417;27;58338;-68
2023/01/09 00:35:27;;;;;;;;;0.00;0.00;;;;;9.20;65.19;99430.78;5084053;27;45427;-70
2023/01/09 00:37:53;;;;;;;;;0.00;0.00;;;;;9.31;64.48;99435.38;5087155;27;45330;-69
2023/01/09 00:40:19;;;;;;;;;1.00;1.00;;;;;9.32;64.42;99437.13;5094429;27;46836;-68
2023/01/09 00:42:49;;;;;;;;;0.00;0.00;;;;;9.32;64.14;99429.13;5089508;27;45495;-69
2023/01/09 00:45:20;;;;;;;;;2.00;0.00;;;;;9.29;64.11;99435.34;5093163;27;45270;-69
2023/01/09 00:47:49;;;;;;;;;2.00;1.00;;;;;9.28;64.24;99425.56;5089639;27;45500;-70
2023/01/09 00:50:23;;;;;;;;;0.00;0.00;;;;;9.31;64.57;99436.25;5087537;27;48060;-70
2023/01/09 00:52:52;;;;;;;;;5.00;0.33;;;;;9.25;64.19;99433.50;5097987;27;45290;-68
2023/01/09 00:55:18;;;;;;;;;1.33;0.67;;;;;9.29;64.74;99450.41;5089376;27;45549;-69
2023/01/09 00:57:44;;;;;;;;;4.00;1.00;;;;;9.25;64.34;99446.84;5094381;27;45709;-69
2023/01/09 01:00:10;;;;;;;;;1.33;0.67;;;;;9.20;64.50;99451.22;5093383;27;45469;-68
2023/01/09 01:02:35;;;;;;;;;1.00;1.00;;;;;8.99;64.13;99422.56;5095251;27;45415;-69
2023/01/09 01:07:45;;;;;;;;;6.00;0.00;;;;;9.12;64.84;99455.56;5096539;27;45523;-69
2023/01/09 01:10:15;;;;;;;;;2.00;0.00;;;;;9.18;64.19;99460.97;5096486;27;46063;-69
2023/01/09 01:12:40;;;;;;;;;2.33;0.67;;;;;8.72;64.93;99378.78;5083309;27;45606;-70
2023/01/09 01:15:07;;;;;;;;;5.25;1.25;;;;;9.16;64.32;99460.09;5075563;27;45460;-70
2023/01/09 01:17:35;;;;;;;;;3.00;3.00;;;;;9.20;64.62;99470.75;5096218;27;45315;-69
2023/01/09 01:20:00;;;;;;;;;2.33;0.33;;;;;9.21;64.24;99469.91;5100506;27;45610;-69
2023/01/09 01:22:25;;;;;;;;;2.00;0.67;;;;;9.06;64.12;99437.75;5090997;27;45592;-70
2023/01/09 01:24:51;;;;;;;;;0.33;0.33;;;;;9.11;65.01;99443.16;5074584;27;45491;-69
2023/01/09 01:27:16;;;;;;;;;4.00;3.00;;;;;9.06;64.43;99439.50;5091154;27;45501;-70
2023/01/09 01:29:41;;;;;;;;;2.00;1.00;;;;;9.26;64.23;99461.97;5092246;27;45556;-69
2023/01/09 01:32:07;;;;;;;;;0.00;0.00;;;;;9.25;63.96;99460.16;5089953;27;45469;-69
2023/01/09 01:34:32;;;;;;;;;0.00;0.00;;;;;9.23;64.74;99468.13;5087535;27;45423;-69
2023/01/09 01:36:58;;;;;;;;;1.00;1.00;;;;;9.28;64.68;99478.84;5091006;27;45497;-68
2023/01/09 01:39:23;;;;;;;;;2.00;1.00;;;;;9.19;64.69;99463.66;5093784;27;45971;-69
2023/01/09 01:41:48;;;;;;;;;3.00;0.00;;;;;9.27;63.94;99474.38;5096410;27;45850;-69
2023/01/09 01:44:51;;;;;;;;;1.00;1.00;;;;;9.26;64.94;99485.06;5093455;27;45428;-67
2023/01/09 01:47:19;;;;;;;;;0.50;0.00;;;;;9.12;64.25;99452.91;5101573;27;45541;-67
2023/01/09 01:49:46;;;;;;;;;2.50;1.00;;;;;9.28;64.63;99481.53;5075246;27;48277;-69
2023/01/09 01:52:12;;;;;;;;;2.33;1.00;;;;;9.15;64.79;99464.50;5097271;27;45420;-70
2023/01/09 01:54:38;;;;;;;;;2.00;0.67;;;;;9.27;64.08;99489.50;5093612;27;45615;-68
2023/01/09 01:57:05;;;;;;;;;1.33;1.00;;;;;9.29;65.06;99496.66;5075106;27;45734;-67
2023/01/09 01:59:41;;;;;;;;;1.00;1.00;;;;;9.29;65.21;99488.66;5085317;27;46065;-68
2023/01/09 02:02:08;;;;;;;;;3.33;0.67;;;;;9.29;64.54;99491.31;5110437;27;45036;-69
2023/01/09 02:04:39;;;;;;;;;0.00;0.00;;;;;9.29;65.22;99488.66;5120355;27;45142;-68
2023/01/09 02:07:08;;;;;;;;;2.33;1.00;;;;;9.22;64.37;99478.78;5106710;27;45040;-69
2023/01/09 02:09:36;;;;;;;;;1.33;1.33;;;;;9.26;64.35;99487.72;5111189;27;45580;-68
2023/01/09 02:12:19;;;;;;;;;0.00;0.00;;;;;9.26;64.94;99475.28;5104795;27;45238;-69
2023/01/09 02:14:47;;;;;;;;;5.67;1.00;;;;;9.30;64.73;99484.22;5109163;27;45302;-69
2023/01/09 02:17:49;;;;;;;;;4.33;0.67;;;;;9.28;64.84;99468.19;5122180;27;45807;-68
2023/01/09 02:20:26;;;;;;;;;4.67;2.00;;;;;9.38;64.52;99509.16;5053602;28;45552;-70
2023/01/09 02:23:19;;;;;;;;;2.25;2.25;;;;;9.38;64.74;99509.16;5108241;27;44982;-69
2023/01/09 02:26:06;;;;;;;;;2.00;0.67;;;;;9.38;65.03;99491.41;5108446;27;45084;-68
2023/01/09 02:28:59;;;;;;;;;0.67;0.00;;;;;9.38;65.14;99510.06;5101510;27;45359;-70
2023/01/09 02:31:34;;;;;;;;;2.33;2.00;;;;;9.26;64.27;99488.63;5113104;27;46073;-70
2023/01/09 02:34:44;;;;;;;;;2.00;0.33;;;;;9.38;64.27;99510.06;5120247;27;45102;-68
2023/01/09 02:37:35;;;;;;;;;5.67;2.00;;;;;9.36;64.88;99513.59;5124193;27;44904;-70
2023/01/09 02:40:13;;;;;;;;;1.33;1.00;;;;;9.34;65.38;99521.56;5119060;27;44981;-69
2023/01/09 02:42:40;;;;;;;;;4.33;1.00;;;;;9.30;65.37;99530.41;5118744;27;45714;-68
2023/01/09 02:45:06;;;;;;;;;1.00;1.00;;;;;9.23;65.26;99520.56;5112011;27;45220;-69
2023/01/09 02:47:38;;;;;;;;;4.00;2.00;;;;;9.28;65.14;99529.50;5113912;27;45119;-69
2023/01/09 02:50:08;;;;;;;;;3.00;1.67;;;;;9.10;64.80;99497.31;5110679;27;45153;-69
2023/01/09 02:52:54;;;;;;;;;2.00;0.00;;;;;9.23;65.37;99529.44;5113262;27;45963;-69
2023/01/09 02:55:47;;;;;;;;;3.00;0.00;;;;;9.23;64.93;99521.44;5111698;27;45178;-69
2023/01/09 02:58:24;;;;;;;;;2.00;0.00;;;;;9.22;66.22;99516.09;5111547;27;45198;-69
2023/01/09 03:00:59;;;;;;;;;1.00;1.00;;;;;9.14;65.61;99504.44;5119064;27;45119;-67
2023/01/09 03:04:03;;;;;;;;;3.00;0.00;;;;;9.22;65.99;99518.75;5106419;27;45184;-68
2023/01/09 03:06:44;;;;;;;;;3.00;0.33;;;;;9.25;65.23;99525.91;5112079;27;45152;-68
2023/01/09 03:09:19;;;;;;;;;5.00;2.00;;;;;9.27;65.48;99522.38;5113177;27;45083;-67
2023/01/09 03:11:56;;;;;;;;;4.33;2.00;;;;;9.29;65.68;99519.72;5110886;27;45379;-67
2023/01/09 03:14:24;;;;;;;;;1.67;0.33;;;;;9.21;65.57;99509.00;5104532;27;45445;-67
2023/01/09 03:16:56;;;;;;;;;6.33;1.00;;;;;8.93;64.86;99452.72;5107880;27;45043;-68
2023/01/09 03:19:25;;;;;;;;;3.00;0.33;;;;;9.12;65.30;99487.56;5111326;27;45206;-69
2023/01/09 03:21:51;;;;;;;;;4.00;1.00;;;;;9.16;64.96;99505.38;5092352;27;45001;-69
2023/01/09 03:24:17;;;;;;;;;1.33;1.33;;;;;9.32;65.23;99538.41;5081785;27;45729;-69
2023/01/09 03:26:43;;;;;;;;;3.00;1.00;;;;;9.33;65.51;99529.56;5105914;27;46122;-69
2023/01/09 03:29:08;;;;;;;;;2.00;2.00;;;;;9.36;65.42;99527.81;5093819;27;45079;-67
2023/01/09 03:31:34;;;;;;;;;4.00;1.00;;;;;9.37;65.53;99528.69;5113083;27;45128;-67
2023/01/09 03:33:59;;;;;;;;;1.00;1.00;;;;;9.36;65.39;99522.47;5118016;27;45785;-68
2023/01/09 03:36:24;;;;;;;;;2.00;0.00;;;;;9.39;64.97;99525.19;5105851;27;45434;-68
2023/01/09 03:38:50;;;;;;;;;0.00;0.00;;;;;9.35;65.13;99519.78;5107194;27;45159;-68
2023/01/09 03:41:16;;;;;;;;;2.00;0.00;;;;;9.38;65.17;99523.38;5125453;27;45091;-68
2023/01/09 03:43:42;;;;;;;;;1.00;0.00;;;;;9.40;65.15;99515.41;5095038;27;48076;-67
2023/01/09 03:46:07;;;;;;;;;1.00;1.00;;;;;9.49;64.33;99533.31;5112481;27;45131;-67
2023/01/09 03:48:33;;;;;;;;;6.00;2.00;;;;;9.34;64.55;99508.25;5117358;27;45098;-69
2023/01/09 03:50:58;;;;;;;;;3.00;1.33;;;;;9.48;64.11;99532.38;5114796;27;45051;-67
2023/01/09 03:53:26;;;;;;;;;1.00;0.67;;;;;9.49;64.54;99530.63;5112510;27;45818;-68
2023/01/09 03:55:53;;;;;;;;;3.67;0.33;;;;;9.47;64.08;99529.69;5120691;27;45011;-68
2023/01/09 03:58:20;;;;;;;;;1.00;1.00;;;;;9.52;63.97;99542.22;5117306;27;45405;-69
2023/01/09 04:00:49;;;;;;;;;3.00;0.00;;;;;9.48;64.01;99535.06;5120249;27;45391;-68
2023/01/09 04:03:18;;;;;;;;;2.00;1.00;;;;;9.55;63.75;99525.34;5111490;27;45230;-69
2023/01/09 04:05:45;;;;;;;;;0.00;0.00;;;;;9.46;63.99;99527.94;5114555;27;45789;-70
2023/01/09 04:08:11;;;;;;;;;0.00;0.00;;;;;9.61;63.53;99549.41;5116379;27;45261;-70
2023/01/09 04:10:36;;;;;;;;;2.00;1.00;;;;;9.56;64.01;99556.47;5115069;27;45185;-69
2023/01/09 04:13:01;;;;;;;;;0.33;0.33;;;;;9.62;63.27;99563.63;5117615;27;45302;-69
2023/01/09 04:15:27;;;;;;;;;0.00;0.00;;;;;9.64;63.58;99562.78;5113111;27;45251;-70
2023/01/09 04:17:52;;;;;;;;;1.00;1.00;;;;;9.64;63.25;99564.56;5109346;27;45097;-68
2023/01/09 04:20:17;;;;;;;;;5.67;1.00;;;;;9.64;63.81;99560.13;5116930;27;47752;-69
2023/01/09 04:22:43;;;;;;;;;1.67;0.00;;;;;9.58;63.86;99560.94;5109579;27;45565;-68
2023/01/09 04:25:09;;;;;;;;;3.00;0.00;;;;;9.61;63.29;99570.75;5108755;27;44929;-68
2023/01/09 04:27:35;;;;;;;;;1.67;1.00;;;;;9.64;63.39;99564.56;5114339;27;45245;-70
2023/01/09 04:30:00;;;;;;;;;3.00;1.33;;;;;9.68;63.43;99577.03;5115961;27;45131;-68
2023/01/09 04:32:26;;;;;;;;;0.33;0.33;;;;;9.59;63.54;99552.06;5108472;27;45914;-67
2023/01/09 04:34:55;;;;;;;;;4.67;0.00;;;;;9.62;62.85;99556.56;5118569;27;45295;-69
2023/01/09 04:37:22;;;;;;;;;0.33;0.00;;;;;9.60;62.44;99547.63;5113179;27;45127;-69
2023/01/09 04:39:48;;;;;;;;;4.33;1.00;;;;;9.63;62.25;99547.66;5121051;27;45041;-68
2023/01/09 04:42:15;;;;;;;;;0.00;0.00;;;;;9.74;63.02;99567.34;5113081;27;45248;-69
2023/01/09 04:44:41;;;;;;;;;2.67;1.00;;;;;9.68;62.80;99561.94;5113666;27;45173;-69
2023/01/09 04:47:06;;;;;;;;;4.00;0.00;;;;;9.74;63.74;99575.34;5111142;27;45297;-69
2023/01/09 04:49:32;;;;;;;;;2.00;0.33;;;;;9.67;63.73;99568.16;5119510;27;44945;-68
2023/01/09 04:51:57;;;;;;;;;0.67;0.67;;;;;9.70;63.14;99577.94;5116843;27;45826;-69
2023/01/09 04:54:22;;;;;;;;;3.00;1.00;;;;;9.70;63.71;99575.28;5113573;27;45021;-69
2023/01/09 04:56:48;;;;;;;;;6.00;2.33;;;;;9.73;63.46;99581.56;5111951;27;45735;-71
2023/01/09 04:59:14;;;;;;;;;1.00;1.00;;;;;9.74;63.23;99585.13;5115804;27;45322;-70
2023/01/09 05:01:39;;;;;;;;;0.00;0.00;;;;;9.71;63.28;99582.41;5100470;27;45646;-69
2023/01/09 05:04:05;;;;;;;;;2.00;0.33;;;;;9.72;63.53;99585.09;5093110;27;45033;-69
2023/01/09 05:06:31;;;;;;;;;0.33;0.00;;;;;9.69;63.09;99571.72;5112581;27;45276;-70
2023/01/09 05:08:56;;;;;;;;;3.00;1.33;;;;;9.77;63.50;99582.50;5113819;27;45111;-69
2023/01/09 05:11:22;;;;;;;;;1.33;0.00;;;;;9.87;63.19;99591.50;5092791;27;47034;-69
2023/01/09 05:13:48;;;;;;;;;0.33;0.00;;;;;9.83;63.17;99578.97;5112880;27;45088;-69
2023/01/09 05:16:13;;;;;;;;;2.00;2.00;;;;;9.80;63.16;99581.63;5115233;27;45446;-69
2023/01/09 05:18:38;;;;;;;;;2.67;1.00;;;;;9.90;62.68;99608.41;5127981;27;45229;-70
2023/01/09 05:21:04;;;;;;;;;3.00;0.00;;;;;9.77;63.00;99588.72;5108753;27;45198;-69
2023/01/09 05:23:29;;;;;;;;;3.00;2.00;;;;;9.93;63.67;99621.78;5112904;27;44966;-69
2023/01/09 05:25:54;;;;;;;;;0.67;0.00;;;;;9.94;63.43;99618.22;5113931;27;45221;-69
2023/01/09 05:28:21;;;;;;;;;0.00;0.00;;;;;9.96;63.66;99628.91;5113199;27;45125;-69
2023/01/09 05:30:47;;;;;;;;;3.00;0.00;;;;;9.96;62.81;99634.25;5105284;27;45531;-69
2023/01/09 05:33:12;;;;;;;;;3.33;1.00;;;;;9.99;62.91;99638.75;5113178;27;45299;-68
2023/01/09 05:35:38;;;;;;;;;4.00;2.00;;;;;9.97;62.71;99649.41;5111851;27;45202;-68
2023/01/09 05:38:03;;;;;;;;;2.00;0.00;;;;;9.99;62.66;99658.31;5116404;27;45103;-68
2023/01/09 05:40:29;;;;;;;;;2.33;1.33;;;;;9.94;62.50;99647.56;5113994;27;45488;-68
2023/01/09 05:42:54;;;;;;;;;1.00;0.00;;;;;9.99;63.28;99658.31;5112485;27;45131;-68
2023/01/09 05:45:19;;;;;;;;;1.00;1.00;;;;;10.03;62.46;99656.56;5117067;27;45151;-69
2023/01/09 05:47:45;;;;;;;;;5.33;1.00;;;;;10.02;62.00;99655.69;5120219;27;45147;-68
2023/01/09 05:50:12;;;;;;;;;2.33;0.33;;;;;10.01;61.89;99661.00;5098414;27;47146;-69
2023/01/09 05:52:37;;;;;;;;;3.33;0.67;;;;;10.02;61.93;99647.66;5101705;27;45156;-69
2023/01/09 05:55:04;;;;;;;;;2.33;0.00;;;;;10.02;61.37;99662.81;5114145;27;45484;-68
2023/01/09 05:57:29;;;;;;;;;0.00;0.00;;;;;9.98;61.33;99653.84;5110044;27;44954;-69
2023/01/09 05:59:55;;;;;;;;;5.00;1.00;;;;;10.01;61.54;99664.56;5094846;27;46199;-67
2023/01/09 06:02:20;;;;;;;;;0.33;0.33;;;;;9.98;61.37;99656.50;5125100;27;45077;-70
2023/01/09 06:04:46;;;;;;;;;0.33;0.00;;;;;9.99;60.31;99660.97;5120342;27;45160;-69
2023/01/09 06:07:11;;;;;;;;;2.00;0.33;;;;;10.04;61.02;99675.25;5097704;27;45244;-70
2023/01/09 06:09:36;;;;;;;;;2.67;0.33;;;;;10.00;60.92;99668.13;5111781;27;45113;-69
2023/01/09 06:12:02;;;;;;;;;1.00;1.00;;;;;10.07;60.51;99674.41;5115072;27;44916;-69
2023/01/09 06:14:28;;;;;;;;;0.00;0.00;;;;;10.09;60.91;99670.88;5115881;27;45088;-69
2023/01/09 06:16:54;;;;;;;;;1.33;0.67;;;;;10.01;60.37;99648.53;5110570;27;45097;-70
2023/01/09 06:19:19;;;;;;;;;0.00;0.00;;;;;10.09;60.11;99668.19;5109578;27;45126;-69
2023/01/09 06:21:44;;;;;;;;;1.00;1.00;;;;;9.96;60.38;99644.94;5116649;27;45101;-68
2023/01/09 06:24:09;;;;;;;;;0.00;0.00;;;;;10.05;60.13;99670.84;5115095;27;45302;-70
2023/01/09 06:26:35;;;;;;;;;3.67;0.00;;;;;10.13;60.13;99685.16;5119531;27;45396;-70
2023/01/09 06:29:01;;;;;;;;;1.00;1.00;;;;;10.11;60.02;99690.47;5116258;27;46088;-68
2023/01/09 06:31:26;;;;;;;;;1.00;1.00;;;;;10.02;60.25;99673.47;5114798;27;45163;-67
2023/01/09 06:33:52;;;;;;;;;1.00;0.00;;;;;10.05;60.19;99698.41;5115865;27;45170;-69
2023/01/09 06:36:18;;;;;;;;;1.00;1.00;;;;;9.97;59.84;99684.09;5114850;27;45285;-67
2023/01/09 06:38:44;;;;;;;;;1.00;0.00;;;;;9.72;59.08;99657.13;5119390;27;44979;-69
2023/01/09 06:41:09;;;;;;;;;1.00;0.00;;;;;10.01;59.37;99693.00;5109736;27;45452;-69
2023/01/09 06:43:35;;;;;;;;;1.00;1.00;;;;;10.01;59.64;99709.91;5110642;27;45854;-70
2023/01/09 06:46:00;;;;;;;;;0.67;0.67;;;;;9.93;58.90;99696.50;5110384;27;45028;-69
2023/01/09 06:48:25;;;;;;;;;1.33;1.00;;;;;10.03;59.27;99713.53;5115348;27;45617;-70
2023/01/09 06:50:52;;;;;;;;;2.67;2.67;;;;;9.92;59.43;99697.38;5116804;27;45185;-68
2023/01/09 06:53:17;;;;;;;;;1.00;1.00;;;;;10.02;59.16;99725.06;5124510;27;45036;-70
2023/01/09 06:55:43;;;;;;;;;0.00;0.00;;;;;10.00;59.43;99724.16;5114559;27;45107;-70
2023/01/09 06:58:09;;;;;;;;;1.33;0.00;;;;;9.98;59.66;99725.88;5086844;27;46683;-69
2023/01/09 07:00:35;;;;;;;;;2.67;0.33;;;;;10.01;59.21;99733.94;5114637;27;45190;-69
2023/01/09 07:03:00;;;;;;;;;1.67;1.00;;;;;9.98;58.94;99733.88;5111061;27;45167;-68
2023/01/09 07:05:26;;;;;;;;;0.00;0.00;;;;;9.96;58.86;99727.66;5114207;27;46303;-69
2023/01/09 07:07:51;;;;;;;;;3.50;3.00;;;;;9.82;59.15;99723.94;5111001;27;46380;-69
2023/01/09 07:10:17;;;;;;;;;1.67;0.67;;;;;9.92;59.43;99755.19;5118413;27;45243;-69
2023/01/09 07:12:42;;;;;;;;;2.00;1.00;;;;;9.59;59.00;99703.19;5113120;27;45417;-69
2023/01/09 07:15:09;;;;;;;;;0.00;0.00;;;;;9.92;58.93;99755.19;5112818;27;45107;-70
2023/01/09 07:17:34;;;;;;;;;0.00;0.00;;;;;9.89;58.46;99763.13;5112079;27;45335;-69
2023/01/09 07:20:00;;;;;;;;;1.00;1.00;;;;;9.75;58.96;99744.25;5113721;27;45060;-70
2023/01/09 07:22:26;;;;;;;;;0.67;0.67;;;;;9.75;58.75;99737.19;5104601;27;45486;-70
2023/01/09 07:24:51;;;;;;;;;2.67;0.67;;;;;9.76;58.52;99738.06;5093987;27;45678;-69
2023/01/09 07:27:17;;;;;;;;;1.00;1.00;;;;;9.79;58.87;99759.44;5076016;27;46775;-70
2023/01/09 07:29:42;;;;;;;;;2.75;1.00;;;;;9.82;59.25;99756.81;5095360;27;45411;-68
2023/01/09 07:32:08;;;;;;;;;3.00;1.33;;;;;9.82;58.90;99754.16;5094109;27;45493;-70
2023/01/09 07:34:33;;;;;;;;;1.67;1.67;;;;;9.77;58.72;99759.44;5104957;27;45280;-70
2023/01/09 07:36:59;;;;;;;;;2.00;1.00;;;;;9.80;59.07;99760.34;5105265;27;46659;-70
2023/01/09 07:39:24;;;;;;;;;1.00;1.00;;;;;9.81;59.08;99754.13;5109701;27;45116;-70
2023/01/09 07:41:50;;;;;;;;;4.00;1.00;;;;;9.82;58.78;99763.94;5098796;27;46052;-69
2023/01/09 07:44:15;;;;;;;;;3.00;1.00;;;;;9.42;58.75;99700.28;5103194;27;45422;-70
2023/01/09 07:46:41;;;;;;;;;1.33;0.00;;;;;9.63;58.93;99753.00;5080392;27;47522;-70
2023/01/09 07:49:06;;;;;;;;;6.00;1.00;;;;;9.64;58.91;99764.59;5113945;27;45462;-69
2023/01/09 07:51:32;;;;;;;;;0.67;0.00;;;;;9.70;58.63;99772.66;5082211;27;45474;-68
2023/01/09 07:53:57;;;;;;;;;1.00;1.00;;;;;9.66;59.01;99787.72;5092656;27;45567;-71
2023/01/09 07:56:22;;;;;;;;;4.50;4.50;;;;;9.62;58.57;99788.56;5098002;27;45495;-71
2023/01/09 07:58:48;;;;;;;;;1.67;0.00;;;;;9.51;58.64;99777.72;5088933;27;45382;-70
2023/01/09 08:01:14;;;;;;;;;1.00;1.00;;;;;9.51;59.64;99777.72;5095553;27;45400;-71
2023/01/09 08:03:39;;;;;;;;;2.00;0.00;;;;;9.62;59.20;99800.97;5105300;27;45640;-69
2023/01/09 08:06:05;;;;;;;;;0.00;0.00;;;;;9.61;59.51;99800.09;5099219;27;45308;-71
2023/01/09 08:08:30;;;;;;;;;0.33;0.33;;;;;9.63;58.60;99814.34;5092859;27;45456;-69
2023/01/09 08:10:56;;;;;;;;;1.00;1.00;;;;;9.64;59.24;99809.91;5096809;27;45286;-70
2023/01/09 08:13:21;;;;;;;;;0.00;0.00;;;;;9.69;58.67;99824.22;5096349;27;45504;-72
2023/01/09 08:15:46;;;;;;;;;0.00;0.00;;;;;9.68;58.74;99809.97;5088965;27;46968;-71
2023/01/09 08:18:12;;;;;;;;;1.67;1.33;;;;;9.73;59.00;99821.63;5092044;27;45346;-70
2023/01/09 08:20:37;;;;;;;;;0.00;0.00;;;;;9.31;58.73;99747.22;5097475;27;45267;-71
2023/01/09 08:23:03;;;;;;;;;0.00;0.00;;;;;9.66;57.90;99814.38;5100106;27;45347;-69
2023/01/09 08:25:28;;;;;;;;;0.33;0.33;;;;;9.76;58.57;99836.75;5098049;27;45618;-69
2023/01/09 08:27:53;;;;;;;;;2.00;2.00;;;;;9.71;58.17;99827.78;5096686;27;45444;-70
2023/01/09 08:30:19;;;;;;;;;1.00;1.00;;;;;9.76;58.06;99847.44;5094995;27;45819;-71
2023/01/09 08:32:53;;;;;;;;;5.00;5.00;;;;;9.76;58.71;99850.97;5102431;27;45391;-70
2023/01/09 08:35:19;;;;;;;;;2.67;2.67;;;;;9.73;58.02;99848.28;5094977;27;46003;-69
2023/01/09 08:37:46;;;;;;;;;1.33;1.00;;;;;9.79;58.31;99860.81;5092279;27;45299;-69
2023/01/09 08:40:12;;;;;;;;;1.00;1.00;;;;;9.50;58.31;99804.34;5093534;27;45519;-71
2023/01/09 08:48:25;;;;;;;;;2.00;1.00;;;;;9.82;57.63;99873.31;5014903;28;45472;-68
2023/01/09 08:50:53;;;;;;;;;0.00;0.00;;;;;9.78;57.95;99870.59;5061140;27;47716;-68
2023/01/09 08:53:19;;;;;;;;;0.67;0.67;;;;;9.83;57.77;99875.09;5092514;27;45601;-70
2023/01/09 08:55:45;;;;;;;;;8.00;8.00;;;;;9.73;57.33;99872.31;5076632;27;46699;-70
2023/01/09 08:58:10;;;;;;;;;1.00;1.00;;;;;9.70;57.95;99868.66;5090318;27;45459;-70
2023/01/09 09:00:36;;;;;;;;;0.33;0.33;;;;;9.59;57.86;99877.41;5095523;27;45247;-71
2023/01/09 09:03:01;;;;;;;;;2.33;0.00;;;;;9.65;58.18;99892.63;5091277;27;45420;-70
2023/01/09 09:05:29;;;;;;;;;4.00;1.00;;;;;9.69;57.87;99890.91;5092728;27;45612;-71
2023/01/09 09:07:55;;;;;;;;;1.00;1.00;;;;;9.70;58.11;99888.25;5088607;27;45540;-70
2023/01/09 09:10:23;;;;;;;;;2.00;2.00;;;;;9.66;57.91;99904.19;5093668;27;45471;-70
2023/01/09 09:12:50;;;;;;;;;1.00;1.00;;;;;9.52;57.81;99917.25;5094973;27;45579;-70
2023/01/09 09:15:22;;;;;;;;;0.67;0.00;;;;;9.49;57.70;99926.13;5094814;27;45272;-68
2023/01/09 09:17:53;;;;;;;;;2.00;1.00;;;;;9.43;58.37;99923.34;5095374;27;45646;-70
2023/01/09 09:20:19;;;;;;;;;0.00;0.00;;;;;9.42;58.29;99932.22;5072365;27;45470;-69
2023/01/09 09:22:46;;;;;;;;;1.00;1.00;;;;;9.44;58.39;99935.81;5095586;27;45538;-66
2023/01/09 09:25:13;;;;;;;;;0.00;0.00;;;;;9.43;58.34;99952.66;5093670;27;46886;-69
2023/01/09 09:27:38;;;;;;;;;2.25;0.00;;;;;9.26;58.89;99932.81;5084882;27;45479;-69
2023/01/09 09:30:05;;;;;;;;;0.00;0.00;;;;;9.36;59.26;99966.75;5094269;27;45254;-70
2023/01/09 09:32:31;;;;;;;;;2.75;1.50;;;;;9.35;58.86;99960.50;5087094;27;45465;-71
2023/01/09 09:34:56;;;;;;;;;0.33;0.33;;;;;9.32;58.67;99952.50;5075878;27;47187;-69
2023/01/09 09:37:22;;;;;;;;;0.50;0.50;;;;;9.07;59.35;99907.59;5094440;27;45545;-68
2023/01/09 09:39:47;;;;;;;;;0.67;0.00;;;;;9.34;58.56;99958.75;5075829;27;45401;-71
2023/01/09 09:45:42;;;;;;;;;0.00;0.00;;;;;9.33;59.58;99990.69;5094202;27;45439;-67
2023/01/09 09:48:33;;;;;;;;;1.00;1.00;;;;;9.36;59.69;99988.97;5099276;27;45468;-68
2023/01/09 09:51:36;;;;;;;;;1.25;0.00;;;;;9.37;58.93;99996.13;5094331;27;45366;-71
2023/01/09 09:54:17;;;;;;;;;1.00;1.00;;;;;9.17;59.11;99965.50;5087661;27;45247;-68
2023/01/09 09:56:50;;;;;;;;;0.00;0.00;;;;;9.44;59.41;100005.13;5094816;27;46183;-70
2023/01/09 09:59:22;;;;;;;;;1.00;0.00;;;;;9.52;59.11;100013.25;5096076;27;45382;-71
2023/01/09 10:02:12;;;;;;;;;2.00;0.00;;;;;9.61;58.81;100005.44;5099841;27;45368;-69
2023/01/09 10:04:45;;;;;;;;;0.50;0.00;;;;;9.63;59.07;99986.78;5101128;27;45595;-69
2023/01/09 10:07:22;;;;;;;;;1.00;1.00;;;;;9.74;58.47;100018.13;5095497;27;45455;-68
2023/01/09 10:09:54;;;;;;;;;1.00;1.00;;;;;9.64;57.92;99991.28;5092714;27;45518;-70
2023/01/09 10:12:28;;;;;;;;;1.00;0.00;;;;;9.85;58.50;100022.75;5077210;27;45550;-70
2023/01/09 10:14:59;;;;;;;;;2.67;1.00;;;;;9.91;58.13;100036.19;5092215;27;45457;-68
2023/01/09 10:17:44;;;;;;;;;1.00;0.00;;;;;9.93;58.43;100024.69;5093864;27;45954;-70
2023/01/09 10:20:44;;;;;;;;;1.00;1.00;;;;;10.00;58.51;100043.44;5099644;27;45458;-69
2023/01/09 10:23:10;;;;;;;;;3.00;2.00;;;;;10.00;58.46;100047.03;5102863;27;45541;-68
2023/01/09 10:25:49;;;;;;;;;2.00;1.00;;;;;10.04;58.38;100048.88;5094654;27;45492;-70
2023/01/09 10:28:21;;;;;;;;;1.33;1.33;;;;;10.07;58.38;100056.06;5093961;27;46445;-70
2023/01/09 10:30:53;;;;;;;;;1.00;1.00;;;;;10.12;58.25;100055.25;5093672;27;45473;-67
2023/01/09 10:33:41;;;;;;;;;1.33;1.00;;;;;10.14;57.83;100065.94;5107619;27;45579;-67
2023/01/09 10:36:45;;;;;;;;;0.00;0.00;;;;;9.99;59.14;100069.25;5092575;27;45560;-69
2023/01/09 10:39:17;;;;;;;;;1.00;1.00;;;;;10.01;58.65;100070.16;5097003;27;46250;-69
2023/01/09 10:41:57;;;;;;;;;2.33;1.00;;;;;10.03;58.59;100080.88;5097373;27;45553;-69
2023/01/09 10:44:32;;;;;;;;;1.00;1.00;;;;;10.03;58.07;100076.44;5096251;27;45568;-63
2023/01/09 10:47:00;;;;;;;;;2.00;0.33;;;;;10.03;58.14;100080.88;5097229;27;45535;-66
2023/01/09 10:49:26;;;;;;;;;3.00;1.00;;;;;9.98;57.89;100088.78;5097058;27;46433;-68
2023/01/09 10:52:04;;;;;;;;;1.00;1.00;;;;;10.00;57.89;100086.16;5104693;27;45524;-66
2023/01/09 10:54:30;;;;;;;;;4.67;0.00;;;;;9.83;57.52;100067.16;5097591;27;45509;-70
2023/01/09 10:57:11;;;;;;;;;0.00;0.00;;;;;9.98;57.70;100094.13;5078907;27;45571;-64
2023/01/09 10:59:39;;;;;;;;;1.33;0.33;;;;;10.02;57.99;100097.78;5094497;27;46467;-65
2023/01/09 11:02:10;;;;;;;;;0.67;0.67;;;;;10.02;57.19;100097.78;5095266;27;45455;-69
2023/01/09 11:04:38;;;;;;;;;2.00;1.00;;;;;9.96;56.93;100094.13;5093804;27;45537;-68
2023/01/09 11:07:17;;;;;;;;;0.00;0.00;;;;;10.02;57.83;100105.78;5097221;27;45445;-67
2023/01/09 11:09:56;;;;;;;;;3.00;1.67;;;;;10.06;57.08;100102.28;5096442;27;45443;-66
2023/01/09 11:12:24;;;;;;;;;4.67;3.67;;;;;10.13;57.99;100094.41;5096085;27;45426;-68
2023/01/09 11:14:49;;;;;;;;;1.00;1.00;;;;;10.08;58.66;100085.44;5096701;27;45546;-69
2023/01/09 11:17:19;;;;;;;;;5.25;3.25;;;;;10.06;59.33;100086.25;5091186;27;45818;-69
2023/01/09 11:20:00;;;;;;;;;4.00;2.00;;;;;10.10;60.49;100096.16;5095608;27;45481;-68
2023/01/09 11:22:26;;;;;;;;;3.00;1.75;;;;;10.13;59.51;100074.84;5088815;27;45461;-68
2023/01/09 11:25:02;;;;;;;;;2.75;2.75;;;;;10.19;59.64;100084.72;5096057;27;45244;-69
2023/01/09 11:27:27;;;;;;;;;3.00;2.33;;;;;10.27;60.25;100091.97;5096594;27;45418;-68
2023/01/09 11:30:26;;;;;;;;;4.00;1.25;;;;;10.28;59.18;100080.44;5096682;27;45320;-68
2023/01/09 11:32:54;;;;;;;;;3.33;3.33;;;;;10.29;58.89;100078.66;5098352;27;45443;-69
2023/01/09 11:35:23;;;;;;;;;6.00;3.00;;;;;10.34;58.22;100087.66;5097893;27;45315;-70
2023/01/09 11:37:59;;;;;;;;;1.00;1.00;;;;;10.29;58.47;100090.22;5102518;27;45429;-67
2023/01/09 11:40:25;;;;;;;;;2.33;0.67;;;;;10.31;57.91;100087.56;5097493;27;45416;-68
2023/01/09 11:43:04;;;;;;;;;8.50;5.50;;;;;10.30;58.02;100080.47;5096264;27;45282;-67
2023/01/09 11:45:32;;;;;;;;;2.33;2.00;;;;;10.35;58.04;100092.16;5094623;27;45548;-68
2023/01/09 11:47:58;;;;;;;;;1.00;1.00;;;;;10.31;57.28;100084.91;5094310;27;45482;-68
2023/01/09 11:50:27;;;;;;;;;0.00;0.00;;;;;10.39;57.03;100091.31;5099348;27;45490;-67
2023/01/09 11:53:14;;;;;;;;;2.33;1.33;;;;;10.44;57.50;100096.72;5113025;27;45288;-67
2023/01/09 11:55:40;;;;;;;;;5.00;1.75;;;;;10.51;57.26;100095.97;5057207;27;45491;-67
2023/01/09 11:58:19;;;;;;;;;2.00;2.00;;;;;10.60;56.41;100100.56;5095989;27;45438;-67
2023/01/09 12:01:18;;;;;;;;;2.00;0.00;;;;;10.60;55.99;100100.56;5086194;27;46039;-70